createdAt,value
2023-04-07T00:01:21.779Z,13.90
2023-04-07T00:03:50.887Z,13.20
2023-04-07T00:06:19.523Z,13.10
2023-04-07T00:08:50.587Z,12.70
2023-04-07T00:11:18.856Z,14.50
2023-04-07T00:13:47.686Z,11.80
2023-04-07T00:16:16.234Z,13.00
2023-04-07T00:18:44.503Z,12.80
2023-04-07T00:21:12.932Z,13.70
2023-04-07T00:23:41.176Z,12.30
2023-04-07T00:26:09.343Z,13.00
2023-04-07T00:28:37.983Z,13.00
2023-04-07T00:31:13.596Z,11.90
2023-04-07T00:33:42.103Z,13.00
2023-04-07T00:36:11.086Z,11.20
2023-04-07T00:38:40.577Z,12.40
2023-04-07T00:48:47.924Z,10.50
2023-04-07T00:51:16.535Z,9.10
2023-04-07T00:53:44.828Z,10.20
2023-04-07T00:56:14.314Z,10.00
2023-04-07T00:58:42.617Z,9.90
2023-04-07T01:01:32.493Z,8.40
2023-04-07T01:04:04.607Z,9.50
2023-04-07T01:06:36.807Z,8.20
2023-04-07T01:09:14.134Z,9.70
2023-04-07T01:11:44.932Z,9.10
2023-04-07T01:14:21.876Z,12.00
2023-04-07T01:16:58.850Z,10.90
2023-04-07T01:19:49.134Z,9.40
2023-04-07T01:22:19.865Z,10.20
2023-04-07T01:24:59.928Z,7.60
2023-04-07T01:27:37.199Z,8.40
2023-04-07T01:30:06.836Z,9.00
2023-04-07T01:32:37.104Z,9.70
2023-04-07T01:35:10.235Z,9.90
2023-04-07T01:37:39.678Z,8.60
2023-04-07T01:40:08.368Z,9.00
2023-04-07T01:42:37.717Z,8.60
2023-04-07T01:45:06.705Z,11.30
2023-04-07T01:47:37.820Z,10.30
2023-04-07T01:50:09.434Z,10.10
2023-04-07T01:52:39.083Z,8.90
2023-04-07T01:55:10.517Z,10.40
2023-04-07T01:57:45.091Z,9.50
2023-04-07T02:00:20.032Z,10.30
2023-04-07T02:02:53.681Z,9.40
2023-04-07T02:05:22.936Z,9.60
2023-04-07T02:07:51.381Z,9.20
2023-04-07T02:10:24.691Z,11.10
2023-04-07T02:12:54.279Z,10.20
2023-04-07T02:15:23.101Z,12.10
2023-04-07T02:17:52.995Z,10.80
2023-04-07T02:20:22.282Z,13.80
2023-04-07T02:22:51.038Z,17.60
2023-04-07T02:25:26.842Z,16.60
2023-04-07T02:27:57.236Z,18.30
2023-04-07T02:30:27.331Z,17.10
2023-04-07T02:32:56.434Z,15.80
2023-04-07T02:35:24.820Z,14.20
2023-04-07T02:37:53.471Z,13.40
2023-04-07T02:40:22.128Z,13.60
2023-04-07T02:42:51.045Z,13.10
2023-04-07T02:45:20.086Z,14.00
2023-04-07T02:47:48.484Z,12.70
2023-04-07T02:50:19.680Z,12.40
2023-04-07T02:52:48.282Z,15.90
2023-04-07T02:55:18.589Z,17.90
2023-04-07T02:57:47.202Z,13.50
2023-04-07T03:00:30.061Z,16.20
2023-04-07T03:03:06.957Z,14.60
2023-04-07T03:05:37.754Z,17.50
2023-04-07T03:08:06.109Z,12.60
2023-04-07T03:10:34.463Z,11.90
2023-04-07T03:13:03.643Z,17.50
2023-04-07T03:15:32.973Z,13.90
2023-04-07T03:18:02.670Z,14.00
2023-04-07T03:20:32.854Z,15.70
2023-04-07T03:23:09.257Z,15.90
2023-04-07T03:25:41.123Z,15.90
2023-04-07T03:28:10.088Z,16.90
2023-04-07T03:30:41.112Z,21.50
2023-04-07T03:33:10.100Z,22.40
2023-04-07T03:35:38.463Z,24.20
2023-04-07T03:38:08.218Z,25.20
2023-04-07T03:40:37.835Z,23.10
2023-04-07T03:43:12.741Z,21.50
2023-04-07T03:45:42.589Z,23.50
2023-04-07T03:48:13.219Z,21.50
2023-04-07T03:50:49.413Z,25.40
2023-04-07T03:53:23.355Z,24.60
2023-04-07T03:55:53.324Z,31.20
2023-04-07T03:58:28.980Z,33.30
2023-04-07T04:00:58.566Z,34.20
2023-04-07T04:03:28.212Z,33.40
2023-04-07T04:06:25.044Z,30.00
2023-04-07T04:08:54.084Z,36.20
2023-04-07T04:11:22.711Z,37.50
2023-04-07T04:14:01.957Z,48.30
2023-04-07T04:16:31.985Z,38.90
2023-04-07T04:19:04.041Z,37.90
2023-04-07T04:21:43.914Z,40.10
2023-04-07T04:24:12.864Z,32.80
2023-04-07T04:26:41.636Z,28.50
2023-04-07T04:29:13.746Z,29.80
2023-04-07T04:31:43.277Z,32.60
2023-04-07T04:34:17.837Z,38.60
2023-04-07T04:36:49.370Z,35.50
2023-04-07T04:39:18.873Z,36.00
2023-04-07T04:41:47.847Z,40.50
2023-04-07T04:44:16.185Z,36.80
2023-04-07T04:46:47.622Z,38.70
2023-04-07T04:49:17.022Z,35.10
2023-04-07T04:51:46.063Z,36.00
2023-04-07T04:54:20.974Z,36.80
2023-04-07T04:56:50.794Z,36.10
2023-04-07T04:59:19.141Z,39.10
2023-04-07T05:02:13.933Z,34.60
2023-04-07T05:04:42.767Z,27.30
2023-04-07T05:07:24.778Z,20.10
2023-04-07T05:09:57.379Z,18.60
2023-04-07T05:12:25.914Z,20.00
2023-04-07T05:15:00.929Z,21.00
2023-04-07T05:17:31.472Z,18.70
2023-04-07T05:20:01.103Z,17.40
2023-04-07T05:22:41.677Z,15.70
2023-04-07T05:25:16.548Z,16.70
2023-04-07T05:27:46.019Z,12.10
2023-04-07T05:30:19.884Z,12.40
2023-04-07T05:32:49.801Z,12.70
2023-04-07T05:35:31.709Z,13.00
2023-04-07T05:38:06.256Z,12.00
2023-04-07T05:40:37.287Z,11.90
2023-04-07T05:43:06.229Z,10.80
2023-04-07T05:53:15.581Z,14.10
2023-04-07T05:55:50.252Z,17.50
2023-04-07T05:58:42.788Z,21.20
2023-04-07T06:01:16.003Z,27.90
2023-04-07T06:03:44.864Z,28.50
2023-04-07T06:06:17.572Z,26.90
2023-04-07T06:08:48.778Z,24.00
2023-04-07T06:11:18.078Z,25.10
2023-04-07T06:13:46.949Z,22.90
2023-04-07T06:16:18.238Z,22.70
2023-04-07T06:18:52.541Z,22.50
2023-04-07T06:21:20.921Z,21.40
2023-04-07T06:23:57.483Z,17.60
2023-04-07T06:26:26.279Z,16.60
2023-04-07T06:28:57.049Z,17.00
2023-04-07T06:31:27.337Z,17.10
2023-04-07T06:33:56.537Z,17.20
2023-04-07T06:36:24.868Z,16.10
2023-04-07T06:38:57.502Z,15.70
2023-04-07T06:41:26.337Z,20.70
2023-04-07T06:43:59.948Z,21.10
2023-04-07T06:46:28.774Z,21.20
2023-04-07T06:49:02.639Z,20.20
2023-04-07T06:51:32.701Z,18.80
2023-04-07T06:54:01.113Z,15.20
2023-04-07T06:56:30.340Z,14.80
2023-04-07T06:58:58.679Z,15.70
2023-04-07T07:01:28.089Z,14.60
2023-04-07T07:03:57.429Z,20.10
2023-04-07T07:06:26.947Z,16.10
2023-04-07T07:08:55.414Z,20.20
2023-04-07T07:11:27.469Z,20.40
2023-04-07T07:13:56.269Z,15.90
2023-04-07T07:16:24.740Z,17.00
2023-04-07T07:18:56.245Z,15.40
2023-04-07T07:21:24.476Z,13.70
2023-04-07T07:23:53.020Z,13.40
2023-04-07T07:26:22.325Z,11.30
2023-04-07T07:28:50.600Z,10.10
2023-04-07T07:31:19.459Z,9.00
2023-04-07T07:33:50.643Z,8.30
2023-04-07T07:36:19.125Z,7.80
2023-04-07T07:38:49.682Z,7.00
2023-04-07T07:41:17.975Z,7.10
2023-04-07T07:43:46.854Z,7.70
2023-04-07T07:46:15.766Z,8.20
2023-04-07T07:48:50.364Z,9.20
2023-04-07T07:51:18.986Z,9.10
2023-04-07T07:53:47.531Z,10.60
2023-04-07T07:56:16.253Z,10.40
2023-04-07T07:58:44.592Z,10.70
2023-04-07T08:01:14.723Z,10.80
2023-04-07T08:03:44.667Z,12.10
2023-04-07T08:06:38.847Z,13.20
2023-04-07T08:09:08.087Z,17.70
2023-04-07T08:11:36.430Z,18.50
2023-04-07T08:14:08.647Z,24.90
2023-04-07T08:16:38.786Z,26.70
2023-04-07T08:19:07.160Z,22.70
2023-04-07T08:21:35.564Z,21.50
2023-04-07T08:24:03.919Z,20.50
2023-04-07T08:26:32.369Z,22.60
2023-04-07T08:29:03.279Z,22.30
2023-04-07T08:31:31.936Z,15.80
2023-04-07T08:34:00.238Z,22.30
2023-04-07T08:36:29.375Z,22.50
2023-04-07T08:38:59.331Z,20.80
2023-04-07T08:41:39.440Z,21.40
2023-04-07T08:44:09.665Z,19.60
2023-04-07T08:46:40.133Z,26.70
2023-04-07T08:49:10.485Z,24.20
2023-04-07T08:51:41.999Z,19.80
2023-04-07T08:54:11.960Z,17.00
2023-04-07T08:56:41.517Z,21.20
2023-04-07T08:59:12.010Z,19.60
2023-04-07T09:01:41.811Z,19.30
2023-04-07T09:04:11.406Z,17.70
2023-04-07T09:06:39.986Z,16.80
2023-04-07T09:09:08.277Z,14.80
2023-04-07T09:11:38.415Z,14.90
2023-04-07T09:14:06.784Z,17.50
2023-04-07T09:16:35.120Z,22.90
2023-04-07T09:19:03.436Z,29.20
2023-04-07T09:21:52.760Z,26.20
2023-04-07T09:24:27.838Z,21.60
2023-04-07T09:27:29.031Z,19.30
2023-04-07T09:29:58.034Z,23.10
2023-04-07T09:32:39.011Z,22.50
2023-04-07T09:35:07.954Z,21.10
2023-04-07T09:37:36.324Z,18.20
2023-04-07T09:40:05.185Z,17.10
2023-04-07T09:42:34.980Z,19.90
2023-04-07T09:45:03.753Z,19.90
2023-04-07T09:47:32.986Z,19.70
2023-04-07T09:50:07.193Z,22.60
2023-04-07T09:52:49.599Z,22.20
2023-04-07T09:55:19.537Z,26.00
2023-04-07T09:57:51.485Z,28.50
2023-04-07T10:00:21.842Z,26.30
2023-04-07T10:02:54.549Z,23.80
2023-04-07T10:05:22.949Z,18.10
2023-04-07T10:07:51.797Z,19.60
2023-04-07T10:10:20.257Z,16.70
2023-04-07T10:12:48.653Z,16.70
2023-04-07T10:17:18.979Z,17.60
2023-04-07T10:19:47.532Z,17.30
2023-04-07T10:22:16.192Z,18.80
2023-04-07T10:24:59.031Z,18.10
2023-04-07T10:27:32.723Z,18.60
2023-04-07T10:30:01.535Z,19.10
2023-04-07T10:40:20.032Z,21.50
2023-04-07T10:42:48.541Z,20.00
2023-04-07T10:45:16.866Z,19.70
2023-04-07T10:47:58.358Z,18.70
2023-04-07T10:50:28.724Z,17.60
2023-04-07T10:53:10.417Z,17.90
2023-04-07T10:55:45.731Z,15.30
2023-04-07T10:58:24.611Z,14.40
2023-04-07T11:01:11.977Z,13.60
2023-04-07T11:03:53.923Z,13.70
2023-04-07T11:06:23.119Z,13.70
2023-04-07T11:08:51.770Z,13.50
2023-04-07T11:11:40.918Z,15.80
2023-04-07T11:14:11.409Z,17.20
2023-04-07T11:16:42.008Z,14.40
2023-04-07T11:19:12.461Z,13.20
2023-04-07T11:21:40.878Z,13.90
2023-04-07T11:24:09.904Z,15.40
2023-04-07T11:26:42.434Z,17.50
2023-04-07T11:29:12.399Z,16.50
2023-04-07T11:31:41.806Z,16.10
2023-04-07T11:34:11.406Z,14.70
2023-04-07T11:36:40.776Z,14.40
2023-04-07T11:39:22.283Z,14.90
2023-04-07T11:41:51.376Z,14.10
2023-04-07T11:44:20.243Z,13.90
2023-04-07T11:46:59.747Z,16.40
2023-04-07T11:49:29.132Z,18.80
2023-04-07T11:51:58.912Z,18.30
2023-04-07T11:54:27.418Z,16.40
2023-04-07T11:56:56.717Z,14.30
2023-04-07T11:59:25.541Z,14.40
2023-04-07T12:01:56.969Z,15.90
2023-04-07T12:04:26.871Z,17.00
2023-04-07T12:06:55.630Z,17.50
2023-04-07T12:09:32.613Z,16.20
2023-04-07T12:12:01.079Z,13.10
2023-04-07T12:14:29.672Z,15.00
2023-04-07T12:16:59.108Z,14.50
2023-04-07T12:19:28.409Z,12.20
2023-04-07T12:21:58.335Z,10.60
2023-04-07T12:24:27.498Z,14.00
2023-04-07T12:26:56.401Z,14.00
2023-04-07T12:29:25.641Z,12.40
2023-04-07T12:31:54.152Z,10.00
2023-04-07T12:34:24.229Z,10.30
2023-04-07T12:36:53.005Z,11.60
2023-04-07T12:39:21.705Z,13.70
2023-04-07T12:41:53.351Z,14.30
2023-04-07T12:44:21.788Z,10.50
2023-04-07T12:46:50.582Z,10.10
2023-04-07T12:49:19.404Z,12.90
2023-04-07T12:51:47.716Z,16.60
2023-04-07T12:54:15.929Z,14.30
2023-04-07T12:56:44.112Z,13.70
2023-04-07T12:59:14.231Z,13.70
2023-04-07T13:01:43.363Z,16.30
2023-04-07T13:04:11.948Z,15.30
2023-04-07T13:06:42.764Z,15.60
2023-04-07T13:09:11.331Z,15.60
2023-04-07T13:11:39.696Z,17.30
2023-04-07T13:14:08.012Z,19.10
2023-04-07T13:16:36.455Z,14.00
2023-04-07T13:19:05.590Z,19.80
2023-04-07T13:21:46.183Z,35.80
2023-04-07T13:24:16.615Z,40.40
2023-04-07T13:26:44.907Z,40.90
2023-04-07T13:29:13.262Z,38.20
2023-04-07T13:31:41.630Z,36.60
2023-04-07T13:34:10.139Z,33.30
2023-04-07T13:36:38.470Z,36.20
2023-04-07T13:39:07.277Z,33.50
2023-04-07T13:41:36.221Z,34.70
2023-04-07T13:44:05.164Z,33.90
2023-04-07T13:46:33.733Z,28.30
2023-04-07T13:49:02.500Z,25.30
2023-04-07T13:51:30.823Z,29.50
2023-04-07T13:53:59.121Z,34.90
2023-04-07T13:56:27.490Z,33.30
2023-04-07T13:58:55.681Z,30.60
2023-04-07T14:01:24.589Z,32.30
2023-04-07T14:03:57.478Z,30.30
2023-04-07T14:06:27.978Z,32.30
2023-04-07T14:08:56.705Z,35.10
2023-04-07T14:11:25.066Z,28.60
2023-04-07T14:13:58.886Z,29.60
2023-04-07T14:16:28.951Z,24.60
2023-04-07T14:18:57.456Z,22.00
2023-04-07T14:21:28.101Z,23.60
2023-04-07T14:23:56.609Z,36.20
2023-04-07T14:26:25.152Z,35.00
2023-04-07T14:28:54.088Z,27.00
2023-04-07T14:31:22.432Z,28.40
2023-04-07T14:33:51.245Z,25.20
2023-04-07T14:36:19.893Z,27.40
2023-04-07T14:38:48.127Z,28.40
2023-04-07T14:41:16.779Z,26.10
2023-04-07T14:43:45.338Z,28.20
2023-04-07T14:46:15.414Z,26.10
2023-04-07T14:48:46.334Z,26.50
2023-04-07T14:51:14.702Z,26.40
2023-04-07T14:53:46.028Z,25.60
2023-04-07T14:56:14.477Z,24.80
2023-04-07T14:58:46.640Z,27.60
2023-04-07T15:01:15.362Z,27.30
2023-04-07T15:03:45.197Z,32.60
2023-04-07T15:06:14.096Z,25.80
2023-04-07T15:08:43.880Z,27.70
2023-04-07T15:11:13.027Z,30.70
2023-04-07T15:13:41.299Z,33.60
2023-04-07T15:16:14.092Z,34.40
2023-04-07T15:18:44.816Z,36.30
2023-04-07T15:21:13.693Z,32.50
2023-04-07T15:23:42.209Z,35.40
2023-04-07T15:26:10.866Z,38.80
2023-04-07T15:36:22.615Z,45.30
2023-04-07T15:38:51.391Z,45.70
2023-04-07T15:41:19.626Z,43.60
2023-04-07T15:43:48.201Z,41.90
2023-04-07T15:46:16.945Z,30.40
2023-04-07T15:48:48.185Z,17.00
2023-04-07T15:51:16.475Z,13.40
2023-04-07T15:53:46.690Z,12.80
2023-04-07T15:56:15.032Z,12.90
2023-04-07T15:58:45.414Z,13.50
2023-04-07T16:01:13.654Z,12.10
2023-04-07T16:03:43.067Z,12.90
2023-04-07T16:06:11.411Z,12.80
2023-04-07T16:08:39.590Z,11.70
2023-04-07T16:11:07.774Z,13.30
2023-04-07T16:13:36.473Z,10.40
2023-04-07T16:16:08.760Z,11.50
2023-04-07T16:18:39.751Z,12.20
2023-04-07T16:21:08.880Z,11.10
2023-04-07T16:23:45.421Z,11.10
2023-04-07T16:26:14.087Z,10.80
2023-04-07T16:28:44.499Z,9.60
2023-04-07T16:31:12.814Z,12.40
2023-04-07T16:33:43.466Z,12.20
2023-04-07T16:36:14.032Z,10.80
2023-04-07T16:38:45.082Z,11.70
2023-04-07T16:41:13.647Z,11.90
2023-04-07T16:43:43.837Z,12.50
2023-04-07T16:46:12.286Z,10.50
2023-04-07T16:48:40.683Z,13.10
2023-04-07T16:51:09.505Z,10.70
2023-04-07T16:53:38.185Z,14.80
2023-04-07T16:56:06.830Z,15.70
2023-04-07T16:58:35.078Z,13.90
2023-04-07T17:01:03.321Z,13.90
2023-04-07T17:03:37.508Z,15.40
2023-04-07T17:06:06.294Z,15.90
2023-04-07T17:08:36.237Z,14.40
2023-04-07T17:11:09.004Z,19.70
2023-04-07T17:13:37.929Z,18.10
2023-04-07T17:16:11.176Z,16.20
2023-04-07T17:18:40.273Z,17.80
2023-04-07T17:21:09.200Z,18.90
2023-04-07T17:23:42.967Z,18.40
2023-04-07T17:26:11.345Z,18.40
2023-04-07T17:28:39.985Z,21.50
2023-04-07T17:31:15.335Z,23.70
2023-04-07T17:33:44.398Z,25.70
2023-04-07T17:36:13.433Z,27.40
2023-04-07T17:38:47.722Z,28.30
2023-04-07T17:41:16.813Z,27.10
2023-04-07T17:43:45.992Z,24.40
2023-04-07T17:46:14.261Z,25.10
2023-04-07T17:48:44.957Z,27.30
2023-04-07T17:51:14.514Z,29.60
2023-04-07T17:53:43.102Z,25.50
2023-04-07T17:56:12.940Z,27.70
2023-04-07T17:58:42.158Z,29.00
2023-04-07T18:01:11.223Z,27.50
2023-04-07T18:03:41.219Z,29.70
2023-04-07T18:06:10.036Z,29.20
2023-04-07T18:08:38.964Z,28.60
2023-04-07T18:11:08.042Z,37.20
2023-04-07T18:13:38.364Z,36.00
2023-04-07T18:16:09.666Z,41.00
2023-04-07T18:18:43.874Z,39.10
2023-04-07T18:21:12.327Z,41.30
2023-04-07T18:23:41.190Z,34.40
2023-04-07T18:26:10.047Z,33.90
2023-04-07T18:28:38.496Z,37.90
2023-04-07T18:31:09.560Z,40.20
2023-04-07T18:33:40.657Z,40.70
2023-04-07T18:36:12.101Z,43.60
2023-04-07T18:38:46.496Z,43.30
2023-04-07T18:41:27.253Z,40.70
2023-04-07T18:43:57.350Z,41.50
2023-04-07T18:46:29.642Z,41.80
2023-04-07T18:57:33.978Z,41.50
2023-04-07T19:00:02.291Z,40.80
2023-04-07T19:02:33.179Z,35.00
2023-04-07T19:05:03.916Z,37.60
2023-04-07T19:07:32.217Z,37.40
2023-04-07T19:10:01.038Z,34.10
2023-04-07T19:12:30.064Z,38.60
2023-04-07T19:15:05.158Z,35.70
2023-04-07T19:17:34.508Z,33.80
2023-04-07T19:20:03.979Z,37.60
2023-04-07T19:22:32.725Z,34.10
2023-04-07T19:25:01.694Z,33.00
2023-04-07T19:27:32.821Z,33.60
2023-04-07T19:30:01.437Z,30.90
2023-04-07T19:32:30.530Z,31.30
2023-04-07T19:34:58.907Z,30.80
2023-04-07T19:37:27.109Z,27.90
2023-04-07T19:40:02.352Z,30.30
2023-04-07T19:42:32.063Z,30.50
2023-04-07T19:45:02.355Z,29.80
2023-04-07T19:47:32.804Z,26.90
2023-04-07T19:50:02.232Z,27.90
2023-04-07T19:52:32.376Z,26.30
2023-04-07T19:55:02.706Z,27.50
2023-04-07T19:57:31.719Z,25.40
2023-04-07T20:00:09.209Z,26.90
2023-04-07T20:02:40.127Z,24.70
2023-04-07T20:05:10.094Z,22.70
2023-04-07T20:07:39.909Z,23.60
2023-04-07T20:10:09.331Z,23.10
2023-04-07T20:12:38.934Z,21.50
2023-04-07T20:15:08.136Z,22.70
2023-04-07T20:17:38.066Z,23.60
2023-04-07T20:20:07.655Z,23.70
2023-04-07T20:22:37.475Z,36.70
2023-04-07T20:25:07.630Z,29.90
2023-04-07T20:27:45.682Z,28.60
2023-04-07T20:30:14.532Z,21.50
2023-04-07T20:32:46.256Z,21.80
2023-04-07T20:37:46.303Z,21.80
2023-04-07T20:40:20.001Z,19.90
2023-04-07T20:42:50.096Z,19.20
2023-04-07T20:45:18.327Z,19.40
2023-04-07T20:47:47.229Z,19.20
2023-04-07T20:50:16.158Z,20.30
2023-04-07T20:52:50.905Z,21.20
2023-04-07T20:55:19.178Z,20.90
2023-04-07T20:57:47.584Z,22.50
2023-04-07T21:00:17.669Z,24.40
2023-04-07T21:02:48.967Z,21.70
2023-04-07T21:05:17.626Z,17.70
2023-04-07T21:07:47.680Z,21.10
2023-04-07T21:10:16.681Z,14.30
2023-04-07T21:12:45.002Z,16.70
2023-04-07T21:15:18.308Z,14.90
2023-04-07T21:17:47.078Z,16.70
2023-04-07T21:20:16.011Z,15.50
2023-04-07T21:22:44.671Z,16.30
2023-04-07T21:25:12.999Z,19.70
2023-04-07T21:27:41.505Z,17.30
2023-04-07T21:30:10.303Z,15.10
2023-04-07T21:32:38.981Z,17.30
2023-04-07T21:35:09.396Z,17.90
2023-04-07T21:37:37.711Z,14.10
2023-04-07T21:40:09.302Z,16.50
2023-04-07T21:42:38.729Z,18.20
2023-04-07T21:45:08.042Z,16.70
2023-04-07T21:47:38.325Z,16.40
2023-04-07T21:50:07.608Z,16.60
2023-04-07T21:52:37.040Z,17.40
2023-04-07T22:02:39.521Z,13.30
2023-04-07T22:05:16.362Z,13.40
2023-04-07T22:07:45.992Z,15.60
2023-04-07T22:10:14.483Z,14.40
2023-04-07T22:12:45.952Z,12.30
2023-04-07T22:15:14.219Z,16.00
2023-04-07T22:17:42.620Z,15.00
2023-04-07T22:20:12.734Z,15.10
2023-04-07T22:22:41.391Z,12.80
2023-04-07T22:25:09.816Z,14.40
2023-04-07T22:27:39.195Z,14.80
2023-04-07T22:30:10.277Z,17.20
2023-04-07T22:35:06.332Z,15.40
2023-04-07T22:37:34.578Z,14.70
2023-04-07T22:40:03.880Z,13.10
2023-04-07T22:42:32.586Z,15.00
2023-04-07T22:45:01.947Z,14.20
2023-04-07T22:47:30.722Z,12.40
2023-04-07T22:49:59.077Z,13.70
2023-04-07T22:52:27.613Z,17.70
2023-04-07T22:54:58.013Z,12.80
2023-04-07T22:57:26.520Z,74.00
2023-04-07T22:59:54.710Z,45.40
2023-04-07T23:02:29.689Z,40.60
2023-04-07T23:04:58.703Z,24.50
2023-04-07T23:07:27.271Z,21.90
2023-04-07T23:09:59.523Z,18.10
2023-04-07T23:12:28.656Z,15.90
2023-04-07T23:14:56.961Z,20.40
2023-04-07T23:17:26.969Z,16.30
2023-04-07T23:19:55.365Z,15.20
2023-04-07T23:22:23.862Z,31.90
2023-04-07T23:24:53.846Z,31.00
2023-04-07T23:27:22.026Z,29.80
2023-04-07T23:29:51.927Z,25.60
2023-04-07T23:32:21.849Z,24.40
2023-04-07T23:34:50.234Z,17.50
2023-04-07T23:37:18.431Z,14.50
2023-04-07T23:39:46.760Z,14.10
2023-04-07T23:42:15.060Z,13.80
2023-04-07T23:44:43.242Z,14.00
2023-04-07T23:47:11.443Z,13.30
2023-04-07T23:49:39.628Z,12.50
2023-04-07T23:52:07.968Z,14.10
2023-04-07T23:54:36.648Z,13.00
2023-04-07T23:57:05.732Z,13.50
2023-04-07T23:59:34.396Z,14.20
